N154ER KISM-KOCF
Flight info
| Callsign | N154ER |
|---|---|
| Flight time | 0h 42m |
| Altitude | 1500 |
| Route | |
| Aircraft | PA28/L-VGD/C |
Departure
| Time | 2026-04-23 21:40 |
|---|---|
| Airport | Kissimmee Gateway Airport (KISM) |
Arrival
| Time | 2026-04-23 22:22 |
|---|---|
| Airport | Ocala International Airport - Jim Taylor Field (KOCF) |
| Time | Latitude | Longitude | Altitude | Speed | Heading |
|---|---|---|---|---|---|
| 2026-04-23 21:40 | 28.43840 | -81.60086 | 1485 ft | 119 kts | 306° |
| 2026-04-23 21:40 | 28.44312 | -81.60858 | 1461 ft | 123 kts | 307° |
| 2026-04-23 21:40 | 28.44825 | -81.61665 | 1401 ft | 123 kts | 308° |
| 2026-04-23 21:40 | 28.45315 | -81.62428 | 1476 ft | 116 kts | 308° |
| 2026-04-23 21:41 | 28.45796 | -81.63173 | 1481 ft | 118 kts | 306° |
| 2026-04-23 21:41 | 28.46260 | -81.63958 | 1470 ft | 121 kts | 305° |
| 2026-04-23 21:41 | 28.46718 | -81.64756 | 1506 ft | 118 kts | 303° |
| 2026-04-23 21:41 | 28.47151 | -81.65551 | 1510 ft | 120 kts | 306° |
| 2026-04-23 21:42 | 28.47678 | -81.66267 | 1439 ft | 120 kts | 311° |
| 2026-04-23 21:42 | 28.48205 | -81.66986 | 1458 ft | 114 kts | 307° |
| 2026-04-23 21:42 | 28.48667 | -81.67693 | 1463 ft | 113 kts | 306° |
| 2026-04-23 21:42 | 28.49139 | -81.68434 | 1402 ft | 118 kts | 306° |
| 2026-04-23 21:43 | 28.49684 | -81.69120 | 1359 ft | 114 kts | 315° |
| 2026-04-23 21:43 | 28.50245 | -81.69770 | 1459 ft | 111 kts | 316° |
| 2026-04-23 21:43 | 28.50753 | -81.70364 | 1722 ft | 110 kts | 314° |
| 2026-04-23 21:43 | 28.51327 | -81.71017 | 1832 ft | 116 kts | 315° |
| 2026-04-23 21:44 | 28.51820 | -81.71648 | 2116 ft | 108 kts | 311° |
| 2026-04-23 21:44 | 28.52345 | -81.72353 | 2221 ft | 114 kts | 310° |
| 2026-04-23 21:44 | 28.52805 | -81.73034 | 2469 ft | 112 kts | 306° |
| 2026-04-23 21:44 | 28.53284 | -81.73768 | 2698 ft | 110 kts | 304° |
| 2026-04-23 21:45 | 28.53630 | -81.74515 | 2890 ft | 114 kts | 296° |
| 2026-04-23 21:45 | 28.54098 | -81.75286 | 3051 ft | 114 kts | 313° |
| 2026-04-23 21:45 | 28.54635 | -81.75898 | 3287 ft | 111 kts | 313° |
| 2026-04-23 21:45 | 28.55113 | -81.76594 | 3566 ft | 109 kts | 303° |
| 2026-04-23 21:46 | 28.55569 | -81.77300 | 3775 ft | 114 kts | 314° |
| 2026-04-23 21:46 | 28.56104 | -81.77932 | 4093 ft | 107 kts | 314° |
| 2026-04-23 21:46 | 28.56675 | -81.78548 | 4201 ft | 120 kts | 319° |
| 2026-04-23 21:46 | 28.57296 | -81.79185 | 4172 ft | 118 kts | 315° |
| 2026-04-23 21:47 | 28.57872 | -81.79836 | 4027 ft | 112 kts | 316° |
| 2026-04-23 21:47 | 28.58449 | -81.80415 | 4017 ft | 113 kts | 320° |
| 2026-04-23 21:47 | 28.59037 | -81.81030 | 4034 ft | 115 kts | 316° |
| 2026-04-23 21:47 | 28.59617 | -81.81648 | 4057 ft | 114 kts | 316° |
| 2026-04-23 21:48 | 28.60193 | -81.82275 | 3999 ft | 121 kts | 314° |
| 2026-04-23 21:48 | 28.60705 | -81.83029 | 4100 ft | 114 kts | 303° |
| 2026-04-23 21:48 | 28.61175 | -81.83755 | 4137 ft | 119 kts | 305° |
| 2026-04-23 21:48 | 28.61690 | -81.84512 | 4177 ft | 119 kts | 312° |
| 2026-04-23 21:49 | 28.62295 | -81.85137 | 4246 ft | 116 kts | 321° |
| 2026-04-23 21:49 | 28.62925 | -81.85718 | 4258 ft | 117 kts | 320° |
| 2026-04-23 21:49 | 28.63570 | -81.86284 | 4281 ft | 116 kts | 324° |
| 2026-04-23 21:49 | 28.64228 | -81.86791 | 4340 ft | 116 kts | 332° |
| 2026-04-23 21:50 | 28.65006 | -81.87116 | 4269 ft | 120 kts | 347° |
| 2026-04-23 21:50 | 28.65802 | -81.87289 | 4324 ft | 115 kts | 354° |
| 2026-04-23 21:50 | 28.66605 | -81.87416 | 4287 ft | 119 kts | 351° |
| 2026-04-23 21:50 | 28.67381 | -81.87678 | 4302 ft | 119 kts | 343° |
| 2026-04-23 21:51 | 28.68184 | -81.87973 | 4288 ft | 117 kts | 345° |
| 2026-04-23 21:51 | 28.68992 | -81.88258 | 4093 ft | 129 kts | 344° |
| 2026-04-23 21:51 | 28.69813 | -81.88563 | 4085 ft | 122 kts | 343° |
| 2026-04-23 21:51 | 28.70643 | -81.88856 | 3970 ft | 126 kts | 345° |
| 2026-04-23 21:52 | 28.71452 | -81.89115 | 3995 ft | 117 kts | 346° |
| 2026-04-23 21:52 | 28.72231 | -81.89374 | 3966 ft | 119 kts | 348° |
| 2026-04-23 21:52 | 28.73045 | -81.89537 | 3934 ft | 118 kts | 353° |
| 2026-04-23 21:52 | 28.73853 | -81.89767 | 3927 ft | 118 kts | 348° |
| 2026-04-23 21:53 | 28.74637 | -81.89996 | 3969 ft | 115 kts | 349° |
| 2026-04-23 21:53 | 28.75417 | -81.90228 | 3988 ft | 117 kts | 345° |
| 2026-04-23 21:53 | 28.76187 | -81.90546 | 4011 ft | 119 kts | 342° |
| 2026-04-23 21:53 | 28.76964 | -81.90871 | 4009 ft | 120 kts | 339° |
| 2026-04-23 21:54 | 28.77717 | -81.91281 | 4056 ft | 119 kts | 336° |
| 2026-04-23 21:54 | 28.78472 | -81.91683 | 4044 ft | 121 kts | 339° |
| 2026-04-23 21:54 | 28.79244 | -81.92033 | 4054 ft | 119 kts | 338° |
| 2026-04-23 21:54 | 28.79993 | -81.92479 | 4038 ft | 121 kts | 335° |
| 2026-04-23 21:55 | 28.80760 | -81.92802 | 4081 ft | 117 kts | 344° |
| 2026-04-23 21:55 | 28.81550 | -81.93123 | 4045 ft | 123 kts | 340° |
| 2026-04-23 21:55 | 28.82310 | -81.93525 | 4108 ft | 118 kts | 334° |
| 2026-04-23 21:55 | 28.83062 | -81.93918 | 4087 ft | 122 kts | 339° |
| 2026-04-23 21:56 | 28.83821 | -81.94304 | 4120 ft | 118 kts | 338° |
| 2026-04-23 21:56 | 28.84586 | -81.94699 | 4033 ft | 124 kts | 337° |
| 2026-04-23 21:56 | 28.85345 | -81.95088 | 4078 ft | 118 kts | 341° |
| 2026-04-23 21:56 | 28.86156 | -81.95387 | 3997 ft | 125 kts | 349° |
| 2026-04-23 21:57 | 28.86982 | -81.95637 | 4013 ft | 123 kts | 343° |
| 2026-04-23 21:57 | 28.87768 | -81.95996 | 4074 ft | 120 kts | 340° |
| 2026-04-23 21:57 | 28.88560 | -81.96353 | 4111 ft | 123 kts | 341° |
| 2026-04-23 21:57 | 28.89352 | -81.96687 | 4198 ft | 120 kts | 345° |
| 2026-04-23 21:58 | 28.90166 | -81.96955 | 4231 ft | 122 kts | 349° |
| 2026-04-23 21:58 | 28.91005 | -81.97182 | 4133 ft | 129 kts | 347° |
| 2026-04-23 21:58 | 28.91857 | -81.97520 | 4075 ft | 126 kts | 344° |
| 2026-04-23 21:58 | 28.92690 | -81.97793 | 4062 ft | 125 kts | 350° |
| 2026-04-23 21:59 | 28.93534 | -81.97989 | 3990 ft | 127 kts | 349° |
| 2026-04-23 21:59 | 28.94387 | -81.98243 | 3995 ft | 122 kts | 347° |
| 2026-04-23 21:59 | 28.95182 | -81.98519 | 3998 ft | 119 kts | 346° |
| 2026-04-23 22:00 | 28.96830 | -81.98914 | 3841 ft | 119 kts | 356° |
| 2026-04-23 22:00 | 28.97637 | -81.99152 | 3791 ft | 119 kts | 341° |
| 2026-04-23 22:00 | 28.98384 | -81.99487 | 3847 ft | 116 kts | 342° |
| 2026-04-23 22:00 | 28.99146 | -81.99790 | 3953 ft | 109 kts | 346° |
| 2026-04-23 22:01 | 28.99848 | -82.00038 | 4057 ft | 111 kts | 346° |
| 2026-04-23 22:01 | 29.00629 | -82.00305 | 4037 ft | 119 kts | 346° |
| 2026-04-23 22:01 | 29.01409 | -82.00581 | 4072 ft | 117 kts | 346° |
| 2026-04-23 22:01 | 29.02183 | -82.00838 | 4055 ft | 116 kts | 345° |
| 2026-04-23 22:02 | 29.02976 | -82.01095 | 3998 ft | 121 kts | 351° |
| 2026-04-23 22:02 | 29.03804 | -82.01365 | 3975 ft | 122 kts | 343° |
| 2026-04-23 22:02 | 29.04585 | -82.01716 | 3995 ft | 121 kts | 338° |
| 2026-04-23 22:02 | 29.05357 | -82.02084 | 4030 ft | 120 kts | 344° |
| 2026-04-23 22:03 | 29.06172 | -82.02315 | 3972 ft | 122 kts | 350° |
| 2026-04-23 22:03 | 29.06991 | -82.02566 | 3976 ft | 122 kts | 347° |
| 2026-04-23 22:03 | 29.07806 | -82.02819 | 3994 ft | 120 kts | 349° |
| 2026-04-23 22:03 | 29.08613 | -82.03094 | 3962 ft | 124 kts | 346° |
| 2026-04-23 22:04 | 29.09419 | -82.03371 | 4037 ft | 116 kts | 345° |
| 2026-04-23 22:04 | 29.10214 | -82.03656 | 3952 ft | 123 kts | 344° |
| 2026-04-23 22:04 | 29.11008 | -82.03974 | 3780 ft | 124 kts | 342° |
| 2026-04-23 22:04 | 29.11813 | -82.04317 | 3593 ft | 123 kts | 346° |
| 2026-04-23 22:05 | 29.12634 | -82.04452 | 3414 ft | 119 kts | 355° |
| 2026-04-23 22:05 | 29.13444 | -82.04696 | 3220 ft | 119 kts | 350° |
| 2026-04-23 22:05 | 29.14260 | -82.04892 | 2989 ft | 122 kts | 352° |
| 2026-04-23 22:05 | 29.15060 | -82.05123 | 2872 ft | 118 kts | 346° |
| 2026-04-23 22:06 | 29.15819 | -82.05564 | 2741 ft | 125 kts | 339° |
| 2026-04-23 22:06 | 29.16579 | -82.05942 | 2671 ft | 116 kts | 346° |
| 2026-04-23 22:06 | 29.17353 | -82.06252 | 2521 ft | 116 kts | 346° |
| 2026-04-23 22:06 | 29.18107 | -82.06533 | 2405 ft | 115 kts | 350° |
| 2026-04-23 22:07 | 29.18877 | -82.06766 | 2328 ft | 113 kts | 353° |
| 2026-04-23 22:07 | 29.19641 | -82.06934 | 2220 ft | 113 kts | 360° |
| 2026-04-23 22:07 | 29.20401 | -82.07070 | 2229 ft | 109 kts | 356° |
| 2026-04-23 22:07 | 29.21145 | -82.07308 | 2142 ft | 114 kts | 347° |
| 2026-04-23 22:08 | 29.21886 | -82.07601 | 2133 ft | 111 kts | 349° |
| 2026-04-23 22:08 | 29.22607 | -82.07900 | 2144 ft | 113 kts | 351° |
| 2026-04-23 22:08 | 29.23348 | -82.08230 | 2150 ft | 113 kts | 340° |
| 2026-04-23 22:08 | 29.24038 | -82.08641 | 2155 ft | 112 kts | 338° |
| 2026-04-23 22:09 | 29.24763 | -82.08969 | 2103 ft | 114 kts | 350° |
| 2026-04-23 22:09 | 29.25503 | -82.09197 | 2170 ft | 108 kts | 348° |
| 2026-04-23 22:09 | 29.26223 | -82.09485 | 2153 ft | 111 kts | 347° |
| 2026-04-23 22:09 | 29.26950 | -82.09761 | 2138 ft | 108 kts | 346° |
| 2026-04-23 22:10 | 29.27644 | -82.10091 | 2110 ft | 108 kts | 348° |
| 2026-04-23 22:10 | 29.28360 | -82.10340 | 2085 ft | 111 kts | 352° |
| 2026-04-23 22:10 | 29.29099 | -82.10528 | 2096 ft | 105 kts | 354° |
| 2026-04-23 22:10 | 29.29807 | -82.10649 | 2092 ft | 105 kts | 357° |
| 2026-04-23 22:11 | 29.30535 | -82.10839 | 2125 ft | 110 kts | 351° |
| 2026-04-23 22:11 | 29.31039 | -82.11010 | 2132 ft | 117 kts | 351° |
| 2026-04-23 22:11 | 29.32045 | -82.11412 | 2244 ft | 111 kts | 344° |
| 2026-04-23 22:11 | 29.32775 | -82.11749 | 2231 ft | 118 kts | 345° |
| 2026-04-23 22:12 | 29.33565 | -82.12023 | 2209 ft | 123 kts | 351° |
| 2026-04-23 22:12 | 29.34385 | -82.12283 | 2183 ft | 119 kts | 354° |
| 2026-04-23 22:12 | 29.34929 | -82.12419 | 2108 ft | 120 kts | 353° |
| 2026-04-23 22:12 | 29.35705 | -82.12700 | 2130 ft | 117 kts | 338° |
| 2026-04-23 22:13 | 29.36134 | -82.13486 | 2145 ft | 125 kts | 276° |
| 2026-04-23 22:13 | 29.36181 | -82.14512 | 2079 ft | 127 kts | 272° |
| 2026-04-23 22:13 | 29.36240 | -82.15501 | 2068 ft | 126 kts | 270° |
| 2026-04-23 22:13 | 29.36272 | -82.16508 | 2065 ft | 125 kts | 271° |
| 2026-04-23 22:14 | 29.36324 | -82.17521 | 2085 ft | 128 kts | 269° |
| 2026-04-23 22:14 | 29.36339 | -82.18513 | 2145 ft | 125 kts | 266° |
| 2026-04-23 22:14 | 29.36294 | -82.19502 | 2191 ft | 124 kts | 261° |
| 2026-04-23 22:14 | 29.36240 | -82.20504 | 2200 ft | 128 kts | 263° |
| 2026-04-23 22:15 | 29.36196 | -82.21517 | 2202 ft | 125 kts | 253° |
| 2026-04-23 22:15 | 29.35689 | -82.22188 | 2105 ft | 111 kts | 184° |
| 2026-04-23 22:15 | 29.34915 | -82.22463 | 1933 ft | 112 kts | 182° |
| 2026-04-23 22:15 | 29.34190 | -82.22579 | 1952 ft | 101 kts | 173° |
| 2026-04-23 22:16 | 29.33495 | -82.22573 | 1865 ft | 102 kts | 168° |
| 2026-04-23 22:16 | 29.32801 | -82.22526 | 1818 ft | 98 kts | 166° |
| 2026-04-23 22:16 | 29.32113 | -82.22479 | 1755 ft | 97 kts | 166° |
| 2026-04-23 22:16 | 29.31460 | -82.22384 | 1765 ft | 93 kts | 162° |
| 2026-04-23 22:17 | 29.30777 | -82.22306 | 1765 ft | 106 kts | 166° |
| 2026-04-23 22:17 | 29.30040 | -82.22281 | 1865 ft | 102 kts | 172° |
| 2026-04-23 22:17 | 29.29327 | -82.22263 | 1848 ft | 106 kts | 173° |
| 2026-04-23 22:17 | 29.28606 | -82.22309 | 1826 ft | 105 kts | 172° |
| 2026-04-23 22:18 | 29.27871 | -82.22293 | 1727 ft | 104 kts | 169° |
| 2026-04-23 22:18 | 29.27163 | -82.22264 | 1671 ft | 102 kts | 173° |
| 2026-04-23 22:18 | 29.26434 | -82.22293 | 1571 ft | 107 kts | 175° |
| 2026-04-23 22:18 | 29.25704 | -82.22310 | 1596 ft | 97 kts | 172° |
| 2026-04-23 22:19 | 29.25068 | -82.22313 | 1495 ft | 89 kts | 171° |
| 2026-04-23 22:19 | 29.24450 | -82.22279 | 1323 ft | 89 kts | 175° |
| 2026-04-23 22:19 | 29.23806 | -82.22312 | 1180 ft | 94 kts | 171° |
| 2026-04-23 22:19 | 29.23161 | -82.22284 | 1099 ft | 96 kts | 173° |
| 2026-04-23 22:20 | 29.22520 | -82.22305 | 1066 ft | 92 kts | 174° |
| 2026-04-23 22:20 | 29.21891 | -82.22299 | 941 ft | 88 kts | 175° |
| 2026-04-23 22:20 | 29.21268 | -82.22309 | 771 ft | 92 kts | 173° |
| 2026-04-23 22:20 | 29.20635 | -82.22299 | 702 ft | 89 kts | 178° |
| 2026-04-23 22:21 | 29.20023 | -82.22309 | 599 ft | 84 kts | 177° |
| 2026-04-23 22:21 | 29.19475 | -82.22303 | 466 ft | 75 kts | 174° |
| 2026-04-23 22:21 | 29.18944 | -82.22298 | 346 ft | 76 kts | 175° |
| 2026-04-23 22:21 | 29.18409 | -82.22294 | 242 ft | 77 kts | 173° |
| 2026-04-23 22:22 | 29.17870 | -82.22304 | 129 ft | 75 kts | 171° |
| 2026-04-23 22:22 | 29.17426 | -82.22305 | 84 ft | 52 kts | 174° |
| 2026-04-23 22:22 | 29.17192 | -82.22304 | 87 ft | 16 kts | 180° |
| 2026-04-23 22:22 | 29.17090 | -82.22303 | 88 ft | 13 kts | 180° |
| 2026-04-23 22:23 | 29.17002 | -82.22302 | 88 ft | 10 kts | 168° |
| 2026-04-23 22:23 | 29.16974 | -82.22230 | 89 ft | 8 kts | 89° |
| 2026-04-23 22:23 | 29.16974 | -82.22219 | 89 ft | 0 kts | 91° |